Banbury 15 External Results
Banbury
17 Mar 19
Has your performance not been assigned to your profile yet? Just click the envelope Notify beside your performance below to notify us and get it on your profile.
Head to Head - to compare runners check 2 or more boxes below and then click
              
 
15M
PosGunChipName AG ClubSBPBHC  
11:25:251:25:24James Bolton  V45MWoodstock/Abingdon1:25:241:23:22-2.3 
21:28:131:28:11Sam Upton  SENMWitney1:28:111:28:11-1.4 
31:28:331:28:33Gareth Petts PBSENMWitney1:28:331:28:33-0.7 
41:29:581:29:58Paul Fernandez SBV40MAbingdon1:29:581:25:420.0 
51:30:371:30:35Matthew Lock  U20MWitney1:30:351:29:39-0.8 
61:31:241:31:21Paul Leverton  V35MAlchester1:31:211:28:040.0 
71:32:441:32:42Graham Hope  V35MKidlington1:32:421:32:420.1 
81:34:101:34:10Mark Baker PBSENMEynsham1:34:101:34:100.5 
91:34:401:34:37Alistair Herbert  SENMCherwell1:34:371:34:370.5 
101:35:011:34:58Ian Keen V40M     
111:35:241:35:21Neil Greig  V40MAlchester1:35:211:35:212.2 
121:35:361:35:32Carlos Zaragoza SENM     
131:36:031:35:58Paul Jegou  V40MWhite Horse/Radley/Southern Counties Vets1:35:581:26:441.0 
141:36:171:36:15Robert Storey  V50MEynsham1:36:151:34:492.9 
151:36:481:36:45Thomas High SENM     
161:37:091:37:05Joanne McCandless  V40WUnattached1:37:051:37:052.4 
171:37:161:37:14David Cantwell  V50MWoodstock1:37:141:30:443.9 
181:38:021:37:59Seth Cayley PBV35MHeadington1:37:591:37:594.9 
191:38:141:38:11Jason Smith PBV45MHeadington1:38:111:38:114.7 
201:38:371:38:27Andy Marshall SENMHeadington RR    
211:38:461:38:43Sean Duvall PBV35MEynsham1:38:431:38:435.6 
221:38:491:38:47Edwina McDowall  V45WHeadington/Tri2o1:38:471:38:475.8 
231:39:211:39:18Richard Simkiss  V35MMcCarkiss Endurance Project1:39:181:24:342.3 
241:39:401:39:37Lee Tolhurst  V45MOverton/Andover/Southern Counties Vets1:39:371:39:373.1 
251:40:421:40:36Steve Round  V40MCherwell1:40:361:33:187.6 
261:41:011:40:56Pearce Phillips  V50MDidcot Runners1:40:561:39:174.6 
271:41:111:41:07John Fenning  SENMHeadington1:41:071:41:073.4 
281:41:171:41:11Ryan Bush V40M     
291:41:211:41:12Carl Gaden  V50MHeadington1:41:121:36:532.2 
301:41:521:41:45Dewi Thomas PBV40MCherwell1:41:451:41:457.3 
311:42:281:42:23James Willard  V35MAbingdon1:42:231:42:234.2 
321:42:431:42:39Stafford Sansome PBSENMUnattached1:42:391:42:392.9 
331:43:591:43:55Shaun O'Gorman  V50MAlchester/Unattached1:43:551:39:095.3 
341:44:191:44:14Graham Ferris  V50MWitney1:44:141:39:427.4 
351:44:281:44:28Daniel Drummond SENM     
361:44:481:44:43Daniel Fisher SENM     
371:45:591:45:51Diane Foster  V40WHeadington1:45:511:38:396.2 
381:46:051:46:01Ian Hunter  V45MAlchester1:46:011:36:414.2 
391:46:221:46:16Andrew Muir  V40MAbingdon1:46:161:46:166.9 
401:46:311:46:19Vincent Gould V40M     
411:46:581:46:55Katy Young  SENWUnattached1:46:551:46:039.0 
421:47:041:47:00Lee Godber  V35MBicester Tri1:47:001:47:005.3 
431:47:071:46:58James Greenaway SENM     
441:47:201:47:17Chris Bedford  V50MAbingdon1:47:171:38:585.0 
451:47:381:47:34Melissa Venables PBV40WSpa Striders1:47:341:47:347.8 
461:47:471:47:39Mike Healey V40MHeadington RR    
471:47:571:47:40Faye Sharpley  SENWThame1:47:401:47:405.4 
481:48:051:48:05Richard Popiel V50M     
491:48:081:47:59Mark Jones  V55MHeadington/Australia1:47:591:47:596.3 
501:48:131:48:13Ralf Arneil PBV45MWoodstock1:48:131:48:139.0 
511:48:271:48:19Gareth Birkett SENMCherwell Runners & Joggers    
521:48:301:48:30Alex Scott V40M     
531:48:391:48:33Kate Allred  V45WEynsham1:48:331:41:494.7 
541:48:481:48:43James Cusack  V40MStratford-upon-Avon1:48:431:48:436.5 
551:48:571:48:52Peter Newell V40M     
561:49:091:49:02Robby Taylor  SENMBuckingham & Stowe1:49:021:49:024.2 
571:50:211:50:18Caitlin Bradley  SENWBanbury/Thames Turbo/Bicester1:50:181:50:189.0 
581:50:391:50:23Edwina M Colclough PBV35WAlchester1:50:231:50:239.7 
591:50:471:50:42Mark Lewy  V55MAbingdon1:50:421:42:318.7 
601:50:511:50:39Vincente Bayliss  SENMAlchester1:50:391:46:017.4 
611:51:041:50:59Tina Wise  V40WDidcot Runners1:50:591:50:598.2 
621:51:301:51:19Kate Anna Daniels  V35WWhite Horse/Headington1:51:191:51:199.6 
631:52:031:51:46Will Mcmanus V40M     
641:52:121:52:02Neil Simmonds V40M     
651:52:171:52:10Paul Brame PBV45MHeadington1:52:101:52:107.0 
661:52:201:52:14Tom Clarke PBV45MAbingdon/Midland Masters1:52:141:52:1410.1 
671:52:401:52:40Imran Gulamhuseinwala V40M     
681:52:431:52:33Kurt Trinder PBV45MCherwell1:52:331:52:339.5 
691:52:521:52:43Danny Batchelor  V55MCherwell1:52:431:52:437.9 
701:53:061:52:59Matthew Hayward V40MRugby tri    
711:53:331:53:21George Adams SENM     
721:53:541:53:54Benedict Kimpton PBV40MUnattached1:53:541:53:548.6 
731:53:571:53:43Simon Best  V50MAlchester1:53:431:53:099.5 
741:53:571:53:47James Messer  V45MHeadington1:53:471:53:476.0 
751:54:181:54:08Amy Read  V35WHeadington1:54:081:54:0813.6 
761:54:261:54:18Rachel Piper  V40WCherwell1:54:181:52:488.5 
771:54:321:54:32Alan Bowen PBV40MAlchester1:54:321:54:325.8 
781:54:461:54:38Owen Lewis  V45MUnattached1:54:381:54:387.8 
791:55:021:54:52Peter Barzetovic  V55MNuneaton1:54:521:54:528.6 
801:55:101:54:52Neil Salmons  V55MAbingdon/Unattached1:54:521:54:527.8 
811:55:121:55:12Beth Owen SENW     
821:55:131:55:06Marie Sucksmith V35W     
831:55:361:55:27Andrew MacDonald  V45MCherwell1:55:271:44:159.7 
841:55:511:55:42Luthfer Rahman  V45MKidlington1:55:421:49:398.7 
851:56:001:55:44Bryan Pears  V50MSphinx1:55:441:50:3111.4 
861:56:291:56:23Andrew Lister  V50MKidlington1:56:231:55:388.6 
871:56:301:56:23Neil Pasmore  V45MBuckingham & Stowe1:56:231:56:2311.4 
881:56:491:56:39John-Paul Hamilton  V45MCherwell1:56:391:56:398.8 
891:57:001:57:00Stuart Newman SENM     
901:57:071:57:07David Pettifer SBV65MKenilworth Runners/Midland Masters1:57:071:50:399.3 
911:57:111:57:05Simon Hull  V45MBuckingham & Stowe1:57:051:57:056.0 
921:57:111:57:05David Morris V50MBuckingham & Stowe RC    
931:57:171:57:05Nick Atkinson V40M     
941:57:311:57:26Jonathan Carruthers  SENMBanbury1:57:261:57:269.0 
951:57:451:57:38Greg Ball  V45MSilson1:57:381:57:389.2 
961:57:511:57:33Max Davison V50M     
971:57:561:57:48Simon Marc Leech  V50MWhite Horse1:57:481:45:284.9 
981:57:561:57:49Pippa Mack  V35WWhite Horse1:57:491:57:499.6 
991:58:001:57:41Matthew Grainge V40MAlchester Running Club    
1001:58:431:58:35Leo Brooke-little  V50MWoodstock1:58:351:57:3212.8 
1011:58:461:58:42Nicholas Tuttle  SENMHeadington1:58:421:58:4213.8 
1021:59:161:58:59Tom Guy  SENMUnattached1:58:591:58:594.1 
1031:59:201:59:04Peter Hellawell SENMHeadington RR    
1041:59:261:59:13Brian Moore PBV55MWitney1:59:131:59:1311.3 
1051:59:271:59:16Lindsey Smith  V45WWitney1:59:161:59:1610.7 
1061:59:311:59:07Lee Davies V50M     
1071:59:421:59:27Will Bowden-Green  V35MHeadington1:59:271:59:2712.1 
1081:59:461:59:39Katie Webster  V35WKidlington1:59:391:59:3912.1 
1091:59:541:59:34Ian Geddes V40M     
1102:00:172:00:04Ian Whitehead  V50MCherwell2:00:041:58:4211.3 
1112:01:332:01:23Liz McGill PBV40WAbingdon2:01:232:01:2312.2 
1122:01:342:01:25Lee Needle PBV35MKidlington2:01:251:58:0512.2 
1132:01:372:01:33Charlotte Drummond SENW     
1142:01:532:01:49Craig Howkins SENM     
1152:02:182:02:04Emma Croft PBV35WHeadington2:02:042:02:0415.0 
1162:03:192:03:00Dean Slatter  SENMCherwell2:03:001:50:029.6 
1172:03:222:03:18Edward Gutteridge  V45MDidcot Runners2:03:182:03:1810.0 
1182:03:242:03:15Rachel Temple-Fry SENW     
1192:03:342:03:23Charlotte Sugden  SENWHeadington2:03:232:01:2810.0 
1202:03:412:03:34Mel Knight V35W     
1212:03:422:03:24John Inskip  V50MCherwell2:03:241:55:4213.9 
1222:03:472:03:47Andrea Finnigan SBV40WKidlington2:03:471:55:429.9 
1232:03:542:03:40Alexander (Billy) Rendell  SENMWitney2:03:402:03:4010.7 
1242:04:062:03:58Rose Ashton  V35WCherwell2:03:582:03:5813.5 
1252:04:092:03:56Melanie Cassidy  V40WWitney2:03:562:03:5613.9 
1262:04:502:04:31David Rushton SENM     
1272:05:482:05:34Philomena Mburu  V60WCompton2:05:341:54:2914.4 
1282:05:522:05:38Lucy Tapper Howe  V45WKidlington2:05:382:05:3814.0 
1292:06:042:05:57Linda Lytollis  V45WSilson2:05:572:01:3916.0 
1302:06:262:06:20Nicholas Hamilton  V60MAbingdon2:06:201:46:2213.1 
1312:06:452:06:33Alice Parsons  SENWWitney2:06:332:06:3310.5 
1322:06:492:06:30John Critchfield PBV55MHook Norton2:06:302:06:3016.6 
1332:07:062:06:57Anna Mackin  SENWEynsham2:06:572:06:5712.1 
1342:07:132:07:07Debbie Morris  V50WBuckingham & Stowe2:07:072:07:0714.0 
1352:07:282:07:21Paul Rockey V50M     
1362:08:122:07:56Martin Clark V50M     
1372:08:142:08:03Madeleine Ding  V35WHeadington2:08:031:53:258.8 
1382:08:172:08:07Lucy Harris  V45WWitney2:08:072:03:2413.2 
1392:08:182:08:08Lisa Butler  V40WWitney2:08:082:08:0813.8 
1402:08:192:08:08Laura Davies  V35WWitney2:08:082:08:0815.7 
1412:08:252:08:12Tori Wells SENWHeadington RR    
1422:08:462:08:31Shaun Byrne  V35MCherwell2:08:312:01:3414.8 
1432:08:542:08:36Yvonne Gajny  V40WStratford-upon-Avon2:08:362:08:3614.4 
1442:09:452:09:36Kate Williamson  V70WEynsham2:09:362:00:2916.0 
1452:09:572:09:35Charles Murphy V50M     
1462:10:052:09:54James Ruddick  V40MKidlington2:09:542:09:5417.2 
1472:10:252:10:12Sam Adams SENM     
1482:10:282:10:08Zoe Martindale  V35WAlchester2:10:082:10:0827.1 
1492:10:442:10:37Sue Torrance  V55WSilson2:10:371:56:0513.7 
1502:11:182:10:50Andrew Berry SENM     
1512:11:212:11:06Malcolm Brown  V60MHook Norton2:11:061:54:0916.7 
1522:11:232:11:11Chris Foxall V40M     
1532:11:502:11:28Elizabeth Turner V45WHeadington RR    
1542:11:552:11:40Philip Lister  V60MHeadington2:11:401:58:3918.1 
1552:12:052:11:52Brynmor Phillips SENMLonely Goat RC    
1562:12:202:12:16Charlie Mitchell  SENWLeamington/Leamington Athletics Academy2:12:162:12:1618.1 
1572:12:302:12:14Keith Moreman  V70MDaventry Road Runners2:12:142:00:2114.3 
1582:12:312:12:20Linda McDonald  V40WCoventry2:12:202:12:2020.0 
1592:13:022:12:40Athanasia Varney V45WHeadington RR    
1602:13:072:12:41David Jarrett  V55MSilson2:12:412:12:3314.6 
1612:13:122:12:56Richard Palmer V50M     
1622:13:482:13:37Jennifer Swarbrick  V35WAbingdon2:13:372:13:3712.9 
1632:13:532:13:53Roger Eadon V50M     
1642:13:572:13:39Ingrid Salisbury  SENWAlchester2:13:392:13:3915.8 
1652:13:582:13:40Wendy Hunter  V45WAlchester2:13:401:58:5116.6 
1662:14:132:14:02Tim Pocock  V55MRipon2:14:022:14:0212.4 
1672:14:342:14:27Livi Ferrie SENWSilson AC    
1682:14:372:14:29Justin Foley V40M     
1692:15:152:14:55Mark Creasey  V60MEynsham2:14:552:00:1218.5 
1702:15:252:15:14David Osborne  V45MCherwell2:15:141:53:0915.3 
1712:15:322:15:23Dawn Osborne  V50WCherwell2:15:232:14:2315.6 
1722:16:252:16:18Daniel Eisenhandler  V50MWoodstock2:16:182:04:2410.6 
1732:16:272:16:01Ben Olney SENM     
1742:17:082:16:56Brad Hook  V50MBrackley2:16:562:16:5611.7 
1752:17:152:17:01Simon Rhodes  V45MWitney2:17:012:17:0116.4 
1762:17:222:17:04Alison Craggs  V40WEynsham2:17:042:17:0413.3 
1772:17:312:17:17Louise Rhodes  V45WWitney2:17:172:17:1718.2 
1782:17:542:17:34Aleks Krzyzowska SENWAlchester Running Club    
1792:18:042:17:43Nicky Wootton V45W     
1802:18:292:18:06Simon Smith SENM     
1812:18:452:18:25Clare Burnby  V50WAlchester2:18:252:18:2514.9 
1822:18:502:18:32Jane Garton  V45WEynsham2:18:322:11:5414.9 
1832:19:182:19:08Anita James  V50WHeadington2:19:082:08:4214.6 
1842:19:302:19:15Julian Bowden-Williams V40M     
1852:19:442:19:26Nicci Burton V35W     
1862:19:482:19:34Lee Vanstone SENMWitney Road Runners    
1872:19:512:19:44Caroline Richards  V60WAdderbury2:19:442:18:0117.3 
1882:20:142:19:57Kimberley Hopkinson  SENWCherwell2:19:572:19:5717.0 
1892:20:192:19:57Eileen Doherty V45W     
1902:20:232:20:05Amy Russell SENWBanbury Harriers    
1912:20:442:20:20Ann Bowles  V65WMarlow Striders2:20:202:20:2018.2 
1922:21:322:21:19Christine Childs  V45WHeadington2:21:192:11:5415.5 
1932:22:032:21:42John Moss SENWBanbury Harriers    
1942:22:052:21:43Chris Rolls V40M     
1952:22:072:21:55Jill Thomas  V45WHeadington2:21:552:14:2614.6 
1962:22:302:22:17Jackie Duvall  V60WHeadington2:22:172:22:1720.2 
1972:22:382:22:17Karen White SENW     
1982:23:162:22:57Steve Payne V60M     
1992:23:332:23:12Lawrence O'Sullivan SENM     
2002:23:362:23:20Bethany Whitehead SENW     
2012:23:482:23:26Lucy Hamilton  V60WAbingdon2:23:262:23:2619.2 
2022:23:482:23:26Liz Bedford  V50WAbingdon2:23:262:23:2616.6 
2032:23:572:23:38Cathy Keay  V50WMassey Ferguson2:23:382:23:3819.6 
2042:25:182:25:00Sharon Christie PBV55WWitney2:25:002:23:2319.3 
2052:25:472:25:26Beverley Brigden  V55WStratford-upon-Avon2:25:262:25:2618.5 
2062:25:572:25:35Helen Budd SENW     
2072:26:082:25:52Craig Pears  SENMSphinx2:25:521:59:5417.0 
2082:26:242:26:12Sandra Harding-Brown PBV50WHeadington2:26:122:26:1216.0 
2092:27:132:26:50Allan Lock  V75MMidland Masters2:26:502:12:4620.6 
2102:28:052:27:47Ieva Smith V35W     
2112:28:052:27:47Tracey Moss  V45WWitney2:27:472:15:4421.5 
2122:29:142:29:01Clarissa Worth  V40WKidlington2:29:012:29:0120.3 
2132:29:312:29:24Suzanne Taylor  V40WAdderbury2:29:242:09:0713.9 
2142:31:122:30:52Jen Whiteside SENW     
2152:31:292:31:08Rachel Brock  V40WMassey Ferguson2:31:082:31:0818.9 
2162:31:402:31:24Andy Keys V50M     
2172:32:072:31:50Zoe Wicker SENW     
2182:32:262:32:16Thomas Dable  V70MKenilworth Runners2:32:162:05:2621.2 
2192:32:592:32:40Wendy Foxall V45WMassey Ferguson RC    
2202:35:032:34:53Liz Hegan  V50WKenilworth Runners2:34:532:24:5224.1 
2212:35:152:34:54Rachel Spence  V50WStratford-upon-Avon2:34:542:34:5440.6 
2222:36:262:36:06Mike Rowe V60M     
2232:37:502:37:36Rachel Rahman  V45WKidlington2:37:362:37:3620.8 
2242:37:562:37:43Joanne Smith V45WKidlington Running Club    
2252:38:122:37:50Alice Hall SENW     
2262:38:352:38:10Hannah Grayson  SENWHeadington2:38:102:26:2619.1 
2272:38:592:38:35Stephanie Hill V35W     
2282:39:002:38:36Allison Maybrey  V45WWitney2:38:362:38:3624.2 
2292:39:512:39:29Phillipa Abrams  V45WStratford-upon-Avon2:39:292:39:2922.3 
2302:43:082:42:45Kathy Clarke  V35WAbingdon2:42:452:42:4522.1 
2312:43:352:43:13Martin Baker V40M     
2322:44:052:43:50Katie Rhymes  V35WKidlington2:43:502:43:5028.2 
2332:44:272:44:07Alison Lowe  V55WMassey Ferguson2:44:072:44:0722.1 
2342:44:322:44:16Kathryn Andrews  V45WAlchester2:44:162:44:1624.4 
2352:45:082:44:52Gillian Warson V55W     
2362:47:042:46:53Pauline Dable  V70WKenilworth Runners2:46:532:15:3724.2 
2372:49:502:49:36Matteo Nasi  V40MHeadington2:49:362:49:3627.4 
2382:50:182:49:59Phyllis Douglas  V65WMassey Ferguson2:49:592:49:5925.6 
2392:50:192:50:00Jason Douglas  V40MMassey Ferguson2:50:002:50:0017.3 
2402:57:292:57:14Rebecca Draper  SENWMassey Ferguson2:57:142:57:1430.3 
2412:58:152:57:55Claire Newman  V35WMassey Ferguson2:57:552:57:5526.1 
2423:04:203:03:55Samantha Bates  SENWHeadington3:03:553:03:5527.9 
2433:14:073:13:53Rachel Adams SENW     
2443:16:133:15:52Alex Bond V35W     
2453:17:273:17:02Niamh Simpson  V45WHeadington3:17:023:17:0232.4 
2463:17:323:17:07Sarah L Ledingham  V55WHeadington3:17:072:42:5621.7 
2473:17:513:17:26Pamela Smith  V70WHeadington3:17:262:52:5231.9 
2483:17:523:17:27Catherine Grasham  SENWHeadington3:17:273:17:2732.0 
2493:25:043:24:54David Phillips  V75MMassey Ferguson3:24:543:24:5427.1